Time;durP1;ratioP1;P1;durP2;ratioP2;P2;SDS_P1;SDS_P2;PMS_P1;PMS_P2;Temp;Humidity;BMP_temperature;BMP_pressure;BME280_temperature;BME280_humidity;BME280_pressure;Samples;Min_cycle;Max_cycle;Signal;HPM_P1;HPM_P2
2022/10/07 00:03:27;;;;;;;3.25;1.40;;;11.40;99.90;;;;;;21030458;28;20078;-39
2022/10/07 00:13:28;;;;;;;6.05;1.80;;;11.30;99.90;;;;;;21030744;28;20495;-39
2022/10/07 00:23:29;;;;;;;5.32;1.92;;;11.20;99.90;;;;;;21029724;28;20562;-39
2022/10/07 00:33:33;;;;;;;2.13;0.93;;;11.20;99.90;;;;;;21020303;28;20032;-39
2022/10/07 00:43:34;;;;;;;3.67;1.42;;;11.30;99.90;;;;;;21027965;28;20056;-39
2022/10/07 00:53:38;;;;;;;1.83;0.82;;;11.30;99.90;;;;;;21023006;28;20504;-39
2022/10/07 01:03:41;;;;;;;3.92;2.17;;;11.30;99.90;;;;;;21021387;28;20293;-39
2022/10/07 01:13:47;;;;;;;2.72;1.55;;;11.30;99.90;;;;;;21021831;28;20024;-39
2022/10/07 01:24:00;;;;;;;1.65;0.80;;;11.30;99.90;;;;;;21017335;28;20858;-39
2022/10/07 01:34:02;;;;;;;3.92;1.63;;;11.10;99.90;;;;;;21020893;28;20879;-39
2022/10/07 01:44:04;;;;;;;2.45;1.23;;;11.10;99.90;;;;;;21017087;28;20149;-39
2022/10/07 01:54:23;;;;;;;16.58;1.77;;;11.00;99.90;;;;;;21028974;28;20036;-39
2022/10/07 02:04:49;;;;;;;3.92;2.17;;;11.00;99.90;;;;;;21043210;28;20065;-39
2022/10/07 02:15:00;;;;;;;7.03;2.95;;;10.80;99.90;;;;;;21028005;28;21873;-39
2022/10/07 02:25:01;;;;;;;6.90;1.23;;;10.70;99.90;;;;;;21032184;28;20221;-39
2022/10/07 02:35:08;;;;;;;5.15;1.33;;;10.60;99.90;;;;;;21038561;28;20051;-39
2022/10/07 02:45:27;;;;;;;2.50;0.93;;;10.60;99.90;;;;;;21033861;28;20101;-39
2022/10/07 02:55:29;;;;;;;3.22;1.58;;;10.50;99.90;;;;;;21030048;28;20040;-39
2022/10/07 03:05:32;;;;;;;5.70;2.85;;;10.50;99.90;;;;;;21024565;28;20086;-38
2022/10/07 03:15:36;;;;;;;5.30;2.40;;;10.50;99.90;;;;;;21029038;28;20049;-39
2022/10/07 03:25:37;;;;;;;4.53;2.80;;;10.50;99.90;;;;;;21032169;28;20066;-39
2022/10/07 03:35:38;;;;;;;14.48;3.60;;;10.30;99.90;;;;;;21032005;28;20044;-39
2022/10/07 03:45:44;;;;;;;4.75;2.08;;;10.40;99.90;;;;;;21030330;28;20133;-40
2022/10/07 03:55:45;;;;;;;5.70;1.95;;;10.40;99.90;;;;;;21031705;28;20036;-41
2022/10/07 04:06:00;;;;;;;4.72;2.28;;;10.20;99.90;;;;;;21026102;28;20106;-41
2022/10/07 04:16:08;;;;;;;4.13;2.00;;;10.30;99.90;;;;;;21024986;28;20231;-41
2022/10/07 04:26:11;;;;;;;3.28;2.05;;;10.30;99.90;;;;;;21027376;28;20043;-41
2022/10/07 04:36:12;;;;;;;5.72;1.88;;;10.20;99.90;;;;;;21025486;28;20428;-41
2022/10/07 04:46:13;;;;;;;4.32;1.75;;;10.30;99.90;;;;;;21022867;28;20071;-41
2022/10/07 04:56:14;;;;;;;7.80;3.05;;;10.30;99.90;;;;;;21026341;28;20036;-41
2022/10/07 05:06:15;;;;;;;15.98;2.45;;;10.30;99.90;;;;;;21017855;28;20052;-41
2022/10/07 05:16:16;;;;;;;3.17;1.48;;;10.20;99.90;;;;;;21020825;28;20074;-41
2022/10/07 05:26:17;;;;;;;5.32;2.53;;;10.20;99.90;;;;;;21021287;28;20052;-41
2022/10/07 05:36:19;;;;;;;17.88;2.03;;;10.20;99.90;;;;;;21022566;28;20024;-41
2022/10/07 05:46:20;;;;;;;4.68;1.50;;;10.20;99.90;;;;;;21021836;28;20040;-41
2022/10/07 05:56:22;;;;;;;3.17;1.55;;;10.30;99.90;;;;;;21027017;28;20121;-41
2022/10/07 06:06:24;;;;;;;5.32;1.08;;;10.30;99.90;;;;;;21021270;28;20619;-41
2022/10/07 06:16:26;;;;;;;3.38;1.35;;;10.30;99.90;;;;;;20993035;28;20517;-41
2022/10/07 06:26:27;;;;;;;2.00;1.10;;;10.40;99.90;;;;;;20996840;28;20125;-41
2022/10/07 06:36:28;;;;;;;5.32;1.73;;;10.50;99.90;;;;;;20997946;28;20118;-41
2022/10/07 06:46:29;;;;;;;8.82;2.75;;;10.60;99.90;;;;;;21016515;28;20601;-41
2022/10/07 06:56:30;;;;;;;5.50;1.67;;;10.60;99.90;;;;;;20994117;28;20173;-42
2022/10/07 07:06:35;;;;;;;5.90;2.25;;;10.70;99.90;;;;;;21007469;28;21512;-41
2022/10/07 07:16:37;;;;;;;3.38;1.33;;;10.90;99.90;;;;;;21040569;28;20115;-41
2022/10/07 07:26:39;;;;;;;6.60;1.73;;;11.10;99.90;;;;;;21048065;28;20139;-41
2022/10/07 07:36:44;;;;;;;5.30;3.17;;;11.20;99.90;;;;;;21011136;28;20222;-41
2022/10/07 07:46:50;;;;;;;4.63;2.03;;;11.60;99.90;;;;;;21034336;28;20229;-39
2022/10/07 07:56:52;;;;;;;2.90;1.02;;;11.90;99.90;;;;;;21052464;28;20109;-39
2022/10/07 08:06:54;;;;;;;2.45;1.27;;;12.20;99.90;;;;;;21050092;28;20597;-39
2022/10/07 08:16:56;;;;;;;2.65;1.13;;;12.40;99.90;;;;;;21043546;28;20155;-39
2022/10/07 08:26:57;;;;;;;6.22;2.58;;;12.80;99.90;;;;;;21040482;28;20067;-39
2022/10/07 08:36:58;;;;;;;2.13;0.93;;;13.20;99.90;;;;;;21027040;28;20179;-40
2022/10/07 08:47:02;;;;;;;4.55;1.50;;;13.60;99.90;;;;;;21034330;28;20131;-39
2022/10/07 08:57:15;;;;;;;5.18;2.00;;;13.80;99.90;;;;;;21055715;28;20089;-40
2022/10/07 09:07:26;;;;;;;4.80;1.80;;;14.00;99.90;;;;;;21036077;28;20498;-39
2022/10/07 09:17:38;;;;;;;2.47;1.35;;;14.20;99.90;;;;;;21036868;28;20163;-40
2022/10/07 09:27:39;;;;;;;8.25;1.00;;;14.40;99.90;;;;;;21037115;28;20318;-39
2022/10/07 09:38:02;;;;;;;5.25;1.88;;;14.20;99.90;;;;;;21027848;28;20131;-40
2022/10/07 09:48:23;;;;;;;2.15;0.95;;;14.10;99.90;;;;;;21040551;28;20833;-39
2022/10/07 09:58:29;;;;;;;8.80;1.55;;;14.20;99.90;;;;;;21026573;28;20539;-39
2022/10/07 10:08:34;;;;;;;6.93;1.88;;;14.60;99.90;;;;;;21029800;28;20070;-39
2022/10/07 10:18:40;;;;;;;4.30;1.52;;;15.10;99.90;;;;;;21026684;28;20142;-39
2022/10/07 10:28:46;;;;;;;2.75;0.82;;;15.70;99.90;;;;;;21061241;28;21725;-40
2022/10/07 10:39:04;;;;;;;3.70;2.17;;;15.70;99.90;;;;;;21069737;28;20055;-39
2022/10/07 10:49:18;;;;;;;3.47;1.17;;;15.90;99.90;;;;;;21068730;28;20949;-39
2022/10/07 10:59:38;;;;;;;3.88;0.90;;;16.00;99.90;;;;;;21046768;28;20117;-39
2022/10/07 11:09:44;;;;;;;5.70;0.95;;;16.10;99.90;;;;;;21022419;28;20145;-40
2022/10/07 11:20:04;;;;;;;5.80;2.08;;;16.30;99.90;;;;;;21040386;28;20236;-40
2022/10/07 11:30:21;;;;;;;3.85;1.20;;;16.40;99.90;;;;;;21037644;28;20760;-40
2022/10/07 11:40:24;;;;;;;3.65;0.60;;;16.50;99.90;;;;;;21040975;28;20076;-40
2022/10/07 11:50:34;;;;;;;11.43;2.25;;;16.60;99.90;;;;;;21038089;28;20129;-39
2022/10/07 12:00:38;;;;;;;3.10;0.68;;;16.80;99.90;;;;;;21029958;28;20143;-39
2022/10/07 12:10:39;;;;;;;1.73;0.95;;;17.10;99.90;;;;;;21021257;28;20892;-40
2022/10/07 12:20:49;;;;;;;2.35;0.93;;;17.00;99.90;;;;;;21024519;28;20125;-39
2022/10/07 12:31:01;;;;;;;2.83;0.77;;;16.80;99.90;;;;;;21022962;28;20086;-39
2022/10/07 12:41:25;;;;;;;6.50;1.10;;;16.60;99.90;;;;;;21020356;28;20152;-39
2022/10/07 12:51:38;;;;;;;2.28;1.13;;;17.10;99.90;;;;;;21020534;28;20173;-39
2022/10/07 13:01:47;;;;;;;2.95;1.13;;;17.00;99.90;;;;;;21002424;28;20262;-39
2022/10/07 13:12:16;;;;;;;2.17;0.80;;;16.90;99.90;;;;;;21021435;28;20090;-39
2022/10/07 13:22:18;;;;;;;5.72;0.73;;;16.80;99.90;;;;;;21021325;28;21916;-40
2022/10/07 13:32:29;;;;;;;1.48;0.77;;;16.90;99.90;;;;;;21028152;28;20687;-40
2022/10/07 13:42:30;;;;;;;1.58;0.80;;;16.80;99.90;;;;;;21027751;28;20078;-40
2022/10/07 13:52:38;;;;;;;4.22;1.85;;;16.60;99.90;;;;;;21015196;28;20115;-40
2022/10/07 14:02:40;;;;;;;4.85;1.38;;;16.80;99.90;;;;;;21030638;28;20090;-40
2022/10/07 14:12:49;;;;;;;6.07;1.15;;;17.30;99.90;;;;;;21013133;28;20107;-40
2022/10/07 14:22:53;;;;;;;1.30;0.60;;;18.00;99.90;;;;;;21016675;28;20117;-40
2022/10/07 14:43:36;;;;;;;1.77;0.95;;;18.10;99.90;;;;;;20943910;28;21708;-40
2022/10/07 14:53:40;;;;;;;2.78;0.70;;;17.90;99.90;;;;;;20939200;28;20076;-40
2022/10/07 15:03:41;;;;;;;3.00;1.10;;;17.40;99.90;;;;;;20942160;28;20131;-40
2022/10/07 15:13:45;;;;;;;4.18;0.60;;;17.30;99.90;;;;;;20929467;28;20070;-40
2022/10/07 15:23:51;;;;;;;6.93;1.20;;;17.10;99.90;;;;;;20951874;28;20339;-40
2022/10/07 15:33:56;;;;;;;1.38;0.50;;;17.00;99.90;;;;;;21020728;28;20134;-40
2022/10/07 15:43:59;;;;;;;2.55;0.75;;;17.00;99.90;;;;;;21044463;28;20059;-40
2022/10/07 15:54:00;;;;;;;2.30;0.70;;;16.80;99.90;;;;;;21040322;28;20927;-40
2022/10/07 16:04:02;;;;;;;2.38;0.85;;;16.60;99.90;;;;;;21039557;28;20039;-40
2022/10/07 16:14:03;;;;;;;5.38;0.50;;;16.50;99.90;;;;;;21010719;28;20151;-40
2022/10/07 16:24:13;;;;;;;1.65;0.50;;;16.40;99.90;;;;;;21014863;28;20473;-40
2022/10/07 16:34:15;;;;;;;4.25;1.38;;;16.30;99.90;;;;;;21032997;28;20080;-40
2022/10/07 16:44:18;;;;;;;1.98;0.82;;;16.20;99.90;;;;;;21026661;28;20073;-40
2022/10/07 16:54:20;;;;;;;3.10;1.35;;;16.00;99.90;;;;;;21022686;28;20182;-40
2022/10/07 17:04:23;;;;;;;1.50;0.70;;;15.80;99.90;;;;;;21038233;28;20093;-40
2022/10/07 17:14:25;;;;;;;2.53;0.98;;;15.60;99.90;;;;;;21026746;28;20197;-40
2022/10/07 17:24:26;;;;;;;2.65;1.35;;;15.50;99.90;;;;;;21030220;28;20656;-40
2022/10/07 17:34:27;;;;;;;7.47;2.95;;;15.30;99.90;;;;;;21031335;28;20043;-40
2022/10/07 17:44:30;;;;;;;2.78;1.08;;;15.20;99.90;;;;;;21030379;28;20996;-40
2022/10/07 17:54:31;;;;;;;2.35;0.80;;;15.10;99.90;;;;;;21019640;28;20082;-40
2022/10/07 18:04:32;;;;;;;4.40;2.10;;;15.00;99.90;;;;;;21025850;28;20035;-40
2022/10/07 18:24:55;;;;;;;3.42;0.85;;;15.00;99.90;;;;;;21010897;28;20353;-40
2022/10/07 18:34:56;;;;;;;4.82;1.02;;;14.90;99.90;;;;;;21026080;28;20047;-40
2022/10/07 18:44:58;;;;;;;2.60;0.60;;;15.00;99.90;;;;;;21039567;28;20265;-40
2022/10/07 18:54:59;;;;;;;4.05;0.50;;;14.90;99.90;;;;;;21041341;28;20685;-40
2022/10/07 19:05:00;;;;;;;4.35;1.20;;;14.70;99.90;;;;;;21020878;28;20618;-40
2022/10/07 19:15:01;;;;;;;2.15;0.90;;;14.60;99.90;;;;;;21018466;28;20038;-40
2022/10/07 19:35:22;;;;;;;2.10;0.63;;;14.30;99.90;;;;;;21026124;28;20622;-39
2022/10/07 19:45:23;;;;;;;2.28;0.93;;;14.30;99.90;;;;;;21026506;28;21405;-39
2022/10/07 19:55:28;;;;;;;6.28;2.03;;;14.10;99.90;;;;;;21020949;28;20624;-40
2022/10/07 20:05:30;;;;;;;2.78;0.80;;;14.00;99.90;;;;;;21022987;28;20115;-40
2022/10/07 20:15:32;;;;;;;3.22;1.42;;;14.00;99.90;;;;;;21021536;28;20089;-40
2022/10/07 20:25:33;;;;;;;1.38;0.60;;;13.80;99.90;;;;;;21024195;28;20154;-39
2022/10/07 20:35:34;;;;;;;3.50;1.05;;;13.80;99.90;;;;;;21030241;28;20093;-39
2022/10/07 20:45:54;;;;;;;19.80;1.88;;;13.70;99.90;;;;;;20995820;28;20040;-40
2022/10/07 20:56:00;;;;;;;2.08;0.93;;;13.60;99.90;;;;;;21033749;28;21056;-38
2022/10/07 21:06:02;;;;;;;1.95;1.02;;;13.50;99.90;;;;;;21036282;28;20982;-38
2022/10/07 21:16:04;;;;;;;1.77;0.65;;;13.50;99.90;;;;;;21046694;28;20190;-40
2022/10/07 21:26:06;;;;;;;3.85;0.93;;;13.40;99.90;;;;;;21049182;28;20559;-38
2022/10/07 21:36:11;;;;;;;1.58;0.60;;;13.30;99.90;;;;;;21041875;28;20055;-38
2022/10/07 21:46:12;;;;;;;3.85;1.25;;;13.30;99.90;;;;;;21040735;28;20065;-38
2022/10/07 21:56:13;;;;;;;2.58;0.93;;;13.40;99.90;;;;;;21032252;28;20658;-38
2022/10/07 22:06:16;;;;;;;3.75;0.68;;;13.40;99.90;;;;;;21033096;28;20081;-39
2022/10/07 22:16:18;;;;;;;1.67;0.50;;;13.50;99.90;;;;;;21036661;28;20101;-39
2022/10/07 22:26:21;;;;;;;3.70;0.80;;;13.60;99.90;;;;;;21045007;28;20089;-39
2022/10/07 22:36:23;;;;;;;2.47;1.25;;;13.80;99.90;;;;;;21042835;28;20140;-39
2022/10/07 22:46:26;;;;;;;1.70;0.82;;;13.90;99.90;;;;;;21040800;28;20067;-39
2022/10/07 22:56:28;;;;;;;2.05;0.60;;;13.90;99.90;;;;;;21044782;28;20399;-39
2022/10/07 23:06:31;;;;;;;6.35;1.85;;;13.80;99.90;;;;;;21040273;28;20164;-39
2022/10/07 23:16:33;;;;;;;3.20;0.38;;;13.80;99.90;;;;;;21039354;28;20106;-39
2022/10/07 23:26:35;;;;;;;1.13;0.30;;;14.00;99.90;;;;;;21030466;28;20063;-38
2022/10/07 23:36:36;;;;;;;0.98;0.10;;;13.70;99.90;;;;;;21028515;28;20063;-38
2022/10/07 23:46:38;;;;;;;1.60;0.20;;;13.30;99.90;;;;;;21031062;28;20055;-38
2022/10/07 23:56:39;;;;;;;1.08;0.20;;;13.00;99.90;;;;;;21030205;28;20040;-39
